createdAt,value
2023-05-15T00:01:59.497Z,101210.28
2023-05-15T00:04:27.095Z,101213.44
2023-05-15T00:06:54.213Z,101208.75
2023-05-15T00:09:21.199Z,101210.59
2023-05-15T00:11:48.137Z,101213.75
2023-05-15T00:14:15.117Z,101216.13
2023-05-15T00:16:42.180Z,101215.44
2023-05-15T00:19:09.322Z,101209.03
2023-05-15T00:21:36.316Z,101203.63
2023-05-15T00:24:03.382Z,101195.13
2023-05-15T00:26:31.121Z,101192.59
2023-05-15T00:28:58.092Z,101182.09
2023-05-15T00:31:25.113Z,101176.00
2023-05-15T00:33:52.033Z,101179.56
2023-05-15T00:36:21.763Z,101183.09
2023-05-15T00:38:51.071Z,101172.47
2023-05-15T00:41:18.953Z,101170.75
2023-05-15T00:43:46.857Z,101171.75
2023-05-15T00:46:14.401Z,101160.72
2023-05-15T00:48:43.778Z,101162.56
2023-05-15T00:51:11.008Z,101159.44
2023-05-15T00:53:38.798Z,101157.06
2023-05-15T00:56:07.321Z,101149.53
2023-05-15T00:58:34.834Z,101148.56
2023-05-15T01:01:01.917Z,101148.56
2023-05-15T01:03:29.306Z,101141.47
2023-05-15T01:05:56.617Z,101148.13
2023-05-15T01:08:48.312Z,101144.31
2023-05-15T01:11:16.569Z,101153.13
2023-05-15T01:13:44.205Z,101151.72
2023-05-15T01:16:11.789Z,101144.63
2023-05-15T01:18:38.908Z,101146.47
2023-05-15T01:21:18.173Z,101138.63
2023-05-15T01:24:08.554Z,101141.75
2023-05-15T01:27:13.671Z,101137.81
2023-05-15T01:30:12.294Z,101133.00
2023-05-15T01:33:01.742Z,101130.72
2023-05-15T01:35:39.602Z,101130.72
2023-05-15T01:38:20.151Z,101124.63
2023-05-15T01:40:49.835Z,101118.22
2023-05-15T01:43:24.456Z,101114.00
2023-05-15T01:45:51.270Z,101111.97
2023-05-15T01:48:19.773Z,101106.72
2023-05-15T01:50:49.188Z,101100.50
2023-05-15T01:53:19.221Z,101102.63
2023-05-15T01:55:50.087Z,101098.53
2023-05-15T01:58:18.035Z,101105.50
2023-05-15T02:00:46.770Z,101100.94
2023-05-15T02:03:15.100Z,101096.56
2023-05-15T02:05:42.954Z,101095.84
2023-05-15T02:08:11.336Z,101097.84
2023-05-15T02:10:39.745Z,101078.28
2023-05-15T02:13:09.181Z,101083.38
2023-05-15T02:15:37.661Z,101080.66
2023-05-15T02:18:05.128Z,101067.19
2023-05-15T02:20:32.161Z,101073.88
2023-05-15T02:22:59.192Z,101069.78
2023-05-15T02:25:40.284Z,101067.97
2023-05-15T02:28:17.465Z,101067.53
2023-05-15T02:30:56.196Z,101065.56
2023-05-15T02:33:42.802Z,101057.06
2023-05-15T02:36:14.119Z,101054.81
2023-05-15T02:38:49.475Z,101051.94
2023-05-15T02:41:17.382Z,101066.13
2023-05-15T02:43:46.687Z,101055.34
2023-05-15T02:46:15.616Z,101046.56
2023-05-15T02:48:44.320Z,101040.31
2023-05-15T02:51:13.875Z,101035.78
2023-05-15T02:53:42.159Z,101035.09
2023-05-15T02:56:09.514Z,101036.78
2023-05-15T02:58:37.228Z,101035.38
2023-05-15T03:01:04.810Z,101032.66
2023-05-15T03:03:31.862Z,101031.25
2023-05-15T03:06:01.035Z,101036.38
2023-05-15T03:08:28.992Z,101031.97
2023-05-15T03:10:56.026Z,101027.16
2023-05-15T03:13:23.573Z,101031.00
2023-05-15T03:15:50.607Z,101033.84
2023-05-15T03:18:19.004Z,101043.03
2023-05-15T03:20:48.632Z,101033.41
2023-05-15T03:23:16.168Z,101027.03
2023-05-15T03:25:43.126Z,101034.41
2023-05-15T03:28:10.249Z,101024.34
2023-05-15T03:30:37.249Z,101029.56
2023-05-15T03:33:04.482Z,101028.31
2023-05-15T03:35:32.598Z,101013.84
2023-05-15T03:37:59.647Z,101010.59
2023-05-15T03:40:26.744Z,101010.59
2023-05-15T03:42:53.845Z,101004.66
2023-05-15T03:45:21.517Z,101002.22
2023-05-15T03:47:49.076Z,101002.66
2023-05-15T03:50:16.407Z,100990.78
2023-05-15T03:52:43.560Z,100993.34
2023-05-15T03:55:10.648Z,100981.13
2023-05-15T03:57:37.684Z,100987.94
2023-05-15T04:00:10.217Z,100979.13
2023-05-15T04:02:41.226Z,100979.69
2023-05-15T04:05:09.115Z,100976.75
2023-05-15T04:07:36.854Z,100978.56
2023-05-15T04:10:04.741Z,100983.97
2023-05-15T04:12:33.985Z,100974.06
2023-05-15T04:15:22.940Z,100979.69
2023-05-15T04:17:52.037Z,100979.44
2023-05-15T04:20:21.537Z,100983.09
2023-05-15T04:22:48.948Z,100992.88
2023-05-15T04:25:16.506Z,100996.13
2023-05-15T04:27:44.494Z,100987.63
2023-05-15T04:30:12.050Z,100991.88
2023-05-15T04:32:40.261Z,101006.59
2023-05-15T04:35:13.714Z,100995.13
2023-05-15T04:37:42.166Z,100998.66
2023-05-15T04:40:10.233Z,101005.16
2023-05-15T04:42:39.216Z,101001.75
2023-05-15T04:45:07.569Z,101002.78
2023-05-15T04:47:34.773Z,101015.94
2023-05-15T04:50:01.891Z,101011.13
2023-05-15T04:52:28.999Z,101015.94
2023-05-15T04:54:56.261Z,101013.97
2023-05-15T04:57:23.467Z,101010.25
2023-05-15T04:59:50.438Z,101007.44
2023-05-15T05:02:21.791Z,101012.84
2023-05-15T05:04:48.798Z,101017.91
2023-05-15T05:07:15.923Z,101019.06
2023-05-15T05:09:43.028Z,101014.41
2023-05-15T05:12:10.039Z,101021.47
2023-05-15T05:14:37.433Z,101014.25
2023-05-15T05:17:04.650Z,101018.66
2023-05-15T05:19:31.562Z,101015.81
2023-05-15T05:22:01.706Z,101009.47
2023-05-15T05:24:28.723Z,101001.09
2023-05-15T05:26:58.245Z,101002.06
2023-05-15T05:29:26.258Z,100996.44
2023-05-15T05:31:53.466Z,100991.03
2023-05-15T05:34:20.748Z,100994.59
2023-05-15T05:36:47.909Z,100991.44
2023-05-15T05:39:16.998Z,100994.97
2023-05-15T05:41:44.541Z,100991.31
2023-05-15T05:44:11.747Z,100985.63
2023-05-15T05:46:38.945Z,100980.00
2023-05-15T05:49:06.203Z,100974.31
2023-05-15T05:51:36.882Z,100968.94
2023-05-15T05:54:04.251Z,100966.22
2023-05-15T05:56:31.494Z,100965.25
2023-05-15T05:58:59.755Z,100967.47
2023-05-15T06:01:27.781Z,100974.91
2023-05-15T06:03:56.114Z,100959.41
2023-05-15T06:06:23.275Z,100972.69
2023-05-15T06:08:50.316Z,100974.66
2023-05-15T06:11:17.482Z,100974.78
2023-05-15T06:13:44.654Z,100992.63
2023-05-15T06:16:11.610Z,100992.16
2023-05-15T06:18:38.575Z,100989.25
2023-05-15T06:21:05.816Z,100992.13
2023-05-15T06:23:32.806Z,100986.53
2023-05-15T06:25:59.787Z,100992.69
2023-05-15T06:28:27.120Z,100994.09
2023-05-15T06:30:54.030Z,100992.47
2023-05-15T06:33:22.231Z,100995.44
2023-05-15T06:35:49.378Z,100993.44
2023-05-15T06:38:16.879Z,100994.34
2023-05-15T06:40:43.861Z,100990.22
2023-05-15T06:43:10.981Z,100992.50
2023-05-15T06:45:37.981Z,101002.19
2023-05-15T06:48:05.137Z,101002.94
2023-05-15T06:50:32.064Z,101000.41
2023-05-15T06:52:58.971Z,101006.09
2023-05-15T06:55:26.253Z,101000.28
2023-05-15T06:57:53.423Z,101004.66
2023-05-15T07:00:20.644Z,100998.44
2023-05-15T07:02:47.864Z,100999.41
2023-05-15T07:05:15.251Z,101000.59
2023-05-15T07:07:42.968Z,101002.66
2023-05-15T07:10:10.112Z,101001.28
2023-05-15T07:12:37.276Z,101003.47
2023-05-15T07:15:05.529Z,101002.47
2023-05-15T07:17:34.056Z,101004.22
2023-05-15T07:20:01.113Z,101015.94
2023-05-15T07:22:29.217Z,101018.19
2023-05-15T07:24:56.337Z,101019.69
2023-05-15T07:27:23.268Z,101021.72
2023-05-15T07:29:50.582Z,101016.94
2023-05-15T07:32:17.869Z,101023.88
2023-05-15T07:34:44.977Z,101025.91
2023-05-15T07:37:11.875Z,101025.69
2023-05-15T07:39:39.009Z,101026.06
2023-05-15T07:42:06.183Z,101029.94
2023-05-15T07:44:33.112Z,101026.03
2023-05-15T07:47:00.487Z,101022.38
2023-05-15T07:49:27.483Z,101021.38
2023-05-15T07:51:54.395Z,101018.75
2023-05-15T07:54:21.395Z,101018.78
2023-05-15T07:56:48.358Z,101013.69
2023-05-15T07:59:15.380Z,101007.66
2023-05-15T08:01:42.375Z,101008.03
2023-05-15T08:04:09.838Z,101002.44
2023-05-15T08:06:39.810Z,101008.59
2023-05-15T08:09:06.851Z,101014.31
2023-05-15T08:11:33.874Z,101012.50
2023-05-15T08:14:00.921Z,101010.03
2023-05-15T08:16:27.976Z,101008.22
2023-05-15T08:18:58.836Z,101010.88
2023-05-15T08:21:25.806Z,101005.41
2023-05-15T08:23:53.924Z,100992.84
2023-05-15T08:26:21.210Z,100985.16
2023-05-15T08:28:48.186Z,100985.84
2023-05-15T08:31:15.212Z,100982.91
2023-05-15T08:33:42.197Z,100978.94
2023-05-15T08:36:09.388Z,100980.16
2023-05-15T08:38:36.717Z,100974.84
2023-05-15T08:41:11.140Z,100982.88
2023-05-15T08:43:39.738Z,100976.56
2023-05-15T08:46:15.821Z,100978.94
2023-05-15T08:48:44.122Z,100982.81
2023-05-15T08:51:11.546Z,100971.19
2023-05-15T08:53:38.611Z,100973.69
2023-05-15T08:56:06.201Z,100970.00
2023-05-15T08:58:34.012Z,100966.00
2023-05-15T09:01:01.368Z,100967.03
2023-05-15T09:03:28.559Z,100968.03
2023-05-15T09:05:56.007Z,100956.41
2023-05-15T09:08:24.668Z,100955.03
2023-05-15T09:10:53.298Z,100959.63
2023-05-15T09:13:20.304Z,100961.19
2023-05-15T09:15:48.333Z,100965.91
2023-05-15T09:18:16.252Z,100966.94
2023-05-15T09:20:43.128Z,100965.38
2023-05-15T09:23:24.648Z,100960.94
2023-05-15T09:25:53.958Z,100956.28
2023-05-15T09:28:32.305Z,100949.97
2023-05-15T09:31:01.794Z,100955.63
2023-05-15T09:33:37.427Z,100955.34
2023-05-15T09:36:06.992Z,100959.41
2023-05-15T09:38:35.112Z,100955.66
2023-05-15T09:41:05.028Z,100957.44
2023-05-15T09:43:39.972Z,100949.84
2023-05-15T09:46:13.197Z,100944.13
2023-05-15T09:48:40.613Z,100948.28
2023-05-15T09:51:16.239Z,100952.16
2023-05-15T09:53:43.329Z,100952.16
2023-05-15T09:56:10.642Z,100948.56
2023-05-15T09:58:37.692Z,100952.06
2023-05-15T10:01:12.230Z,100939.72
2023-05-15T10:03:43.790Z,100927.19
2023-05-15T10:06:18.642Z,100926.69
2023-05-15T10:08:52.739Z,100920.53
2023-05-15T10:11:20.024Z,100927.91
2023-05-15T10:13:47.773Z,100924.47
2023-05-15T10:16:15.288Z,100922.34
2023-05-15T10:18:45.830Z,100934.78
2023-05-15T10:21:13.917Z,100925.38
2023-05-15T10:23:43.767Z,100922.53
2023-05-15T10:26:22.098Z,100924.50
2023-05-15T10:28:50.102Z,100913.09
2023-05-15T10:31:18.885Z,100917.16
2023-05-15T10:33:47.584Z,100920.44
2023-05-15T10:36:15.844Z,100903.00
2023-05-15T10:38:44.166Z,100907.38
2023-05-15T10:41:17.535Z,100909.38
2023-05-15T10:43:46.641Z,100911.09
2023-05-15T10:46:14.221Z,100901.09
2023-05-15T10:48:41.588Z,100909.97
2023-05-15T10:51:24.289Z,100895.72
2023-05-15T10:53:51.949Z,100898.53
2023-05-15T10:56:19.060Z,100906.72
2023-05-15T10:58:50.143Z,100912.66
2023-05-15T11:01:43.413Z,100889.59
2023-05-15T11:04:14.726Z,100883.84
2023-05-15T11:06:46.365Z,100884.44
2023-05-15T11:09:22.458Z,100881.84
2023-05-15T11:11:52.878Z,100885.75
2023-05-15T11:14:20.287Z,100887.47
2023-05-15T11:16:53.622Z,100893.31
2023-05-15T11:19:35.237Z,100882.72
2023-05-15T11:22:03.362Z,100879.16
2023-05-15T11:24:32.128Z,100886.44
2023-05-15T11:27:03.820Z,100891.06
2023-05-15T11:29:31.758Z,100871.59
2023-05-15T11:31:59.758Z,100881.94
2023-05-15T11:34:41.542Z,100879.41
2023-05-15T11:37:17.997Z,100881.25
2023-05-15T11:39:45.135Z,100881.91
2023-05-15T11:42:13.212Z,100878.53
2023-05-15T11:44:40.538Z,100883.94
2023-05-15T11:47:11.490Z,100880.91
2023-05-15T11:49:38.795Z,100885.34
2023-05-15T11:52:06.570Z,100888.03
2023-05-15T11:54:33.954Z,100886.19
2023-05-15T11:57:01.970Z,100878.91
2023-05-15T11:59:28.949Z,100878.09
2023-05-15T12:01:55.872Z,100857.25
2023-05-15T12:04:23.029Z,100863.53
2023-05-15T12:06:50.134Z,100858.94
2023-05-15T12:09:19.210Z,100864.03
2023-05-15T12:11:56.043Z,100858.13
2023-05-15T12:14:29.798Z,100855.00
2023-05-15T12:17:03.070Z,100851.09
2023-05-15T12:19:31.161Z,100860.97
2023-05-15T12:21:58.082Z,100849.09
2023-05-15T12:24:27.034Z,100855.91
2023-05-15T12:26:56.621Z,100849.47
2023-05-15T12:29:25.911Z,100855.94
2023-05-15T12:31:54.252Z,100858.31
2023-05-15T12:34:22.038Z,100868.81
2023-05-15T12:36:49.254Z,100851.88
2023-05-15T12:39:16.260Z,100846.13
2023-05-15T12:41:46.313Z,100838.69
2023-05-15T12:44:21.169Z,100840.69
2023-05-15T12:46:48.762Z,100844.38
2023-05-15T12:49:21.773Z,100839.34
2023-05-15T12:51:49.214Z,100855.22
2023-05-15T12:54:24.004Z,100845.19
2023-05-15T12:56:51.092Z,100844.69
2023-05-15T12:59:19.094Z,100828.13
2023-05-15T13:01:46.174Z,100830.19
2023-05-15T13:04:13.117Z,100834.91
2023-05-15T13:06:46.221Z,100843.38
2023-05-15T13:09:14.315Z,100841.88
2023-05-15T13:11:45.345Z,100847.78
2023-05-15T13:14:17.709Z,100835.22
2023-05-15T13:16:47.786Z,100840.69
2023-05-15T13:19:16.022Z,100843.69
2023-05-15T13:21:43.965Z,100843.00
2023-05-15T13:24:11.157Z,100852.59
2023-05-15T13:26:38.235Z,100842.56
2023-05-15T13:29:05.406Z,100837.22
2023-05-15T13:31:32.670Z,100836.88
2023-05-15T13:33:59.645Z,100837.94
2023-05-15T13:36:26.883Z,100839.63
2023-05-15T13:38:53.795Z,100834.03
2023-05-15T13:41:21.287Z,100836.38
2023-05-15T13:43:49.433Z,100837.53
2023-05-15T13:46:16.671Z,100838.59
2023-05-15T13:48:43.841Z,100836.22
2023-05-15T13:51:11.409Z,100844.53
2023-05-15T13:53:38.358Z,100849.72
2023-05-15T13:56:06.632Z,100848.66
2023-05-15T13:58:34.514Z,100861.31
2023-05-15T14:01:05.665Z,100847.84
2023-05-15T14:03:32.765Z,100845.94
2023-05-15T14:06:00.114Z,100844.47
2023-05-15T14:08:27.101Z,100849.81
2023-05-15T14:10:53.987Z,100839.06
2023-05-15T14:13:20.912Z,100827.94
2023-05-15T14:15:47.926Z,100830.34
2023-05-15T14:18:14.998Z,100833.06
2023-05-15T14:20:42.088Z,100840.13
2023-05-15T14:23:09.063Z,100836.97
2023-05-15T14:25:36.026Z,100840.09
2023-05-15T14:28:03.015Z,100827.59
2023-05-15T14:30:30.028Z,100825.56
2023-05-15T14:32:57.018Z,100826.09
2023-05-15T14:35:24.225Z,100815.16
2023-05-15T14:37:51.228Z,100813.44
2023-05-15T14:40:18.279Z,100816.66
2023-05-15T14:42:45.221Z,100815.50
2023-05-15T14:45:12.230Z,100811.78
2023-05-15T14:47:39.637Z,100806.31
2023-05-15T14:50:07.466Z,100795.88
2023-05-15T14:52:34.431Z,100807.03
2023-05-15T14:55:09.192Z,100802.97
2023-05-15T14:57:38.038Z,100803.38
2023-05-15T15:00:06.741Z,100816.59
2023-05-15T15:02:34.260Z,100805.97
2023-05-15T15:05:01.339Z,100815.94
2023-05-15T15:07:32.487Z,100824.41
2023-05-15T15:09:59.526Z,100830.53
2023-05-15T15:12:26.963Z,100835.94
2023-05-15T15:14:54.124Z,100833.06
2023-05-15T15:17:21.040Z,100828.16
2023-05-15T15:19:48.234Z,100824.44
2023-05-15T15:22:15.250Z,100818.53
2023-05-15T15:24:42.276Z,100810.22
2023-05-15T15:27:09.344Z,100818.19
2023-05-15T15:29:36.387Z,100817.66
2023-05-15T15:32:04.168Z,100818.81
2023-05-15T15:34:31.221Z,100820.50
2023-05-15T15:36:58.206Z,100826.41
2023-05-15T15:39:25.268Z,100817.28
2023-05-15T15:41:53.776Z,100812.88
2023-05-15T15:44:20.700Z,100807.78
2023-05-15T15:46:48.039Z,100803.72
2023-05-15T15:49:15.052Z,100807.75
2023-05-15T15:51:42.235Z,100805.69
2023-05-15T15:54:09.272Z,100813.09
2023-05-15T15:56:36.240Z,100824.53
2023-05-15T15:59:04.196Z,100816.41
2023-05-15T16:01:31.547Z,100811.00
2023-05-15T16:03:58.621Z,100814.06
2023-05-15T16:06:25.866Z,100807.38
2023-05-15T16:08:52.827Z,100817.84
2023-05-15T16:11:19.749Z,100821.19
2023-05-15T16:13:46.734Z,100820.19
2023-05-15T16:16:13.698Z,100818.53
2023-05-15T16:18:40.819Z,100817.94
2023-05-15T16:21:08.196Z,100817.53
2023-05-15T16:23:36.979Z,100808.59
2023-05-15T16:26:06.536Z,100806.03
2023-05-15T16:28:33.537Z,100806.03
2023-05-15T16:31:01.280Z,100806.69
2023-05-15T16:33:29.934Z,100808.59
2023-05-15T16:35:57.399Z,100808.13
2023-05-15T16:38:25.300Z,100810.25
2023-05-15T16:40:52.361Z,100807.03
2023-05-15T16:43:20.237Z,100813.41
2023-05-15T16:45:47.391Z,100807.38
2023-05-15T16:48:14.491Z,100813.09
2023-05-15T16:50:41.540Z,100815.28
2023-05-15T16:53:08.681Z,100818.84
2023-05-15T16:55:35.664Z,100810.94
2023-05-15T16:58:02.620Z,100813.09
2023-05-15T17:00:29.525Z,100819.94
2023-05-15T17:02:56.733Z,100824.00
2023-05-15T17:05:23.828Z,100819.69
2023-05-15T17:07:50.793Z,100815.16
2023-05-15T17:10:17.795Z,100823.66
2023-05-15T17:12:45.114Z,100820.41
2023-05-15T17:15:13.255Z,100814.31
2023-05-15T17:17:40.260Z,100813.81
2023-05-15T17:20:07.739Z,100817.19
2023-05-15T17:22:34.784Z,100821.91
2023-05-15T17:25:01.966Z,100818.31
2023-05-15T17:27:29.001Z,100827.44
2023-05-15T17:29:56.049Z,100823.75
2023-05-15T17:32:23.230Z,100819.88
2023-05-15T17:34:52.994Z,100829.66
2023-05-15T17:37:20.030Z,100831.69
2023-05-15T17:39:47.023Z,100826.94
2023-05-15T17:42:13.967Z,100835.19
2023-05-15T17:44:41.042Z,100830.00
2023-05-15T17:47:09.933Z,100837.63
2023-05-15T17:49:38.201Z,100836.78
2023-05-15T17:52:06.419Z,100845.28
2023-05-15T17:54:33.371Z,100837.50
2023-05-15T17:57:00.491Z,100841.22
2023-05-15T17:59:27.875Z,100842.56
2023-05-15T18:01:54.994Z,100837.84
2023-05-15T18:04:22.137Z,100837.09
2023-05-15T18:06:49.888Z,100851.75
2023-05-15T18:09:17.069Z,100845.69
2023-05-15T18:11:44.120Z,100847.56
2023-05-15T18:14:11.112Z,100845.97
2023-05-15T18:16:38.454Z,100848.53
2023-05-15T18:19:05.555Z,100844.84
2023-05-15T18:21:33.697Z,100847.69
2023-05-15T18:24:01.499Z,100849.09
2023-05-15T18:26:31.280Z,100856.16
2023-05-15T18:28:58.204Z,100855.84
2023-05-15T18:31:25.435Z,100850.97
2023-05-15T18:33:52.855Z,100848.75
2023-05-15T18:36:19.818Z,100851.94
2023-05-15T18:38:46.758Z,100850.59
2023-05-15T18:41:16.496Z,100853.44
2023-05-15T18:43:43.520Z,100853.59
2023-05-15T18:46:10.457Z,100852.44
2023-05-15T18:48:37.599Z,100845.63
2023-05-15T18:51:04.545Z,100845.34
2023-05-15T18:53:31.653Z,100846.13
2023-05-15T18:55:58.616Z,100852.13
2023-05-15T18:58:25.543Z,100850.13
2023-05-15T19:00:52.539Z,100850.13
2023-05-15T19:03:20.895Z,100858.63
2023-05-15T19:05:47.963Z,100846.63
2023-05-15T19:08:15.024Z,100854.34
2023-05-15T19:10:47.338Z,100865.53
2023-05-15T19:13:14.344Z,100866.47
2023-05-15T19:15:41.375Z,100858.72
2023-05-15T19:18:08.487Z,100869.69
2023-05-15T19:20:35.594Z,100867.84
2023-05-15T19:23:02.636Z,100866.84
2023-05-15T19:25:29.677Z,100866.50
2023-05-15T19:27:56.690Z,100859.25
2023-05-15T19:30:23.888Z,100863.19
2023-05-15T19:32:50.997Z,100868.25
2023-05-15T19:35:17.970Z,100866.75
2023-05-15T19:37:45.248Z,100873.00
2023-05-15T19:40:12.941Z,100874.38
2023-05-15T19:42:39.914Z,100875.72
2023-05-15T19:45:07.456Z,100880.63
2023-05-15T19:47:34.533Z,100879.25
2023-05-15T19:50:01.498Z,100879.47
2023-05-15T19:52:28.524Z,100879.47
2023-05-15T19:54:55.466Z,100884.19
2023-05-15T19:57:22.421Z,100880.16
2023-05-15T19:59:49.581Z,100888.25
2023-05-15T20:02:16.512Z,100895.22
2023-05-15T20:04:43.398Z,100898.44
2023-05-15T20:07:10.591Z,100895.72
2023-05-15T20:09:39.313Z,100893.88
2023-05-15T20:12:07.014Z,100899.13
2023-05-15T20:14:34.972Z,100901.47
2023-05-15T20:17:01.993Z,100899.06
2023-05-15T20:19:31.601Z,100910.59
2023-05-15T20:21:58.578Z,100910.06
2023-05-15T20:24:26.424Z,100912.94
2023-05-15T20:26:53.388Z,100922.19
2023-05-15T20:29:21.151Z,100917.97
2023-05-15T20:31:48.455Z,100915.41
2023-05-15T20:34:16.075Z,100912.53
2023-05-15T20:36:44.005Z,100914.38
2023-05-15T20:39:11.598Z,100909.50
2023-05-15T20:41:38.577Z,100898.34
2023-05-15T20:44:05.887Z,100907.16
2023-05-15T20:46:33.151Z,100917.97
2023-05-15T20:49:00.166Z,100913.91
2023-05-15T20:51:27.069Z,100922.38
2023-05-15T20:53:54.015Z,100920.66
2023-05-15T20:56:21.790Z,100911.56
2023-05-15T20:58:49.062Z,100915.41
2023-05-15T21:01:16.394Z,100922.19
2023-05-15T21:03:43.997Z,100918.31
2023-05-15T21:06:11.426Z,100915.28
2023-05-15T21:08:38.354Z,100912.72
2023-05-15T21:11:05.355Z,100913.56
2023-05-15T21:13:32.434Z,100904.47
2023-05-15T21:15:59.485Z,100913.28
2023-05-15T21:18:27.050Z,100916.97
2023-05-15T21:20:54.011Z,100908.72
2023-05-15T21:23:21.476Z,100909.56
2023-05-15T21:25:48.455Z,100918.69
2023-05-15T21:28:16.009Z,100918.69
2023-05-15T21:30:43.127Z,100922.38
2023-05-15T21:33:10.491Z,100914.63
2023-05-15T21:35:38.217Z,100914.25
2023-05-15T21:38:05.620Z,100901.03
2023-05-15T21:40:32.759Z,100904.41
2023-05-15T21:42:59.743Z,100893.03
2023-05-15T21:45:26.809Z,100898.63
2023-05-15T21:47:53.777Z,100896.22
2023-05-15T21:50:20.723Z,100901.97
2023-05-15T21:52:50.414Z,100894.50
2023-05-15T21:55:17.819Z,100897.19
2023-05-15T21:57:45.462Z,100894.63
2023-05-15T22:00:12.705Z,100890.44
2023-05-15T22:02:39.641Z,100889.06
2023-05-15T22:05:07.102Z,100883.94
2023-05-15T22:07:34.077Z,100880.06
2023-05-15T22:10:03.174Z,100869.25
2023-05-15T22:12:30.590Z,100866.72
2023-05-15T22:14:59.349Z,100876.81
2023-05-15T22:17:29.349Z,100870.75
2023-05-15T22:20:07.220Z,100875.59
2023-05-15T22:22:35.956Z,100872.69
2023-05-15T22:25:03.043Z,100868.91
2023-05-15T22:27:30.219Z,100868.19
2023-05-15T22:29:57.246Z,100863.97
2023-05-15T22:32:24.939Z,100864.84
2023-05-15T22:34:52.324Z,100862.59
2023-05-15T22:37:20.574Z,100856.03
2023-05-15T22:39:47.820Z,100861.44
2023-05-15T22:42:14.985Z,100858.69
2023-05-15T22:44:41.890Z,100853.28
2023-05-15T22:47:08.779Z,100860.69
2023-05-15T22:49:36.306Z,100852.59
2023-05-15T22:52:03.863Z,100850.06
2023-05-15T22:54:30.769Z,100855.63
2023-05-15T22:56:58.171Z,100857.94
2023-05-15T22:59:25.204Z,100855.16
2023-05-15T23:01:52.323Z,100860.16
2023-05-15T23:04:19.432Z,100856.47
2023-05-15T23:06:46.760Z,100856.94
2023-05-15T23:09:14.175Z,100853.88
2023-05-15T23:11:41.310Z,100841.16
2023-05-15T23:14:08.508Z,100846.53
2023-05-15T23:16:36.032Z,100840.94
2023-05-15T23:19:03.275Z,100837.78
2023-05-15T23:21:30.302Z,100826.75
2023-05-15T23:23:57.312Z,100825.84
2023-05-15T23:26:24.750Z,100834.22
2023-05-15T23:28:51.796Z,100834.53
2023-05-15T23:31:18.892Z,100831.31
2023-05-15T23:33:46.134Z,100830.31
2023-05-15T23:36:13.018Z,100826.06
2023-05-15T23:38:40.134Z,100829.75
2023-05-15T23:41:07.377Z,100829.22
2023-05-15T23:43:34.830Z,100829.69
2023-05-15T23:46:01.857Z,100826.16
2023-05-15T23:48:29.196Z,100831.28
2023-05-15T23:50:56.146Z,100833.78
2023-05-15T23:53:23.167Z,100833.91
2023-05-15T23:55:53.723Z,100837.31
2023-05-15T23:58:21.533Z,100829.97
